sensor_id;sensor_type;location;lat;lon;timestamp;P1;durP1;ratioP1;P2;durP2;ratioP2
36547;SDS011;22551;52.206;4.856;2023-06-22T01:18:31;16.45;;;9.75;;
36547;SDS011;22551;52.206;4.856;2023-06-22T01:23:41;15.05;;;9.55;;
36547;SDS011;22551;52.206;4.856;2023-06-22T01:28:57;14.80;;;9.80;;
36547;SDS011;22551;52.206;4.856;2023-06-22T01:34:01;15.82;;;9.88;;
36547;SDS011;22551;52.206;4.856;2023-06-22T01:39:06;19.25;;;10.77;;
36547;SDS011;22551;52.206;4.856;2023-06-22T01:44:11;28.10;;;14.65;;
36547;SDS011;22551;52.206;4.856;2023-06-22T01:49:14;29.80;;;14.52;;
36547;SDS011;22551;52.206;4.856;2023-06-22T01:54:18;31.87;;;14.87;;
36547;SDS011;22551;52.206;4.856;2023-06-22T01:59:23;28.08;;;14.30;;
36547;SDS011;22551;52.206;4.856;2023-06-22T02:04:32;28.45;;;15.32;;
36547;SDS011;22551;52.206;4.856;2023-06-22T02:09:41;31.92;;;16.27;;
36547;SDS011;22551;52.206;4.856;2023-06-22T02:14:48;35.65;;;18.00;;
36547;SDS011;22551;52.206;4.856;2023-06-22T02:19:50;31.77;;;16.50;;
36547;SDS011;22551;52.206;4.856;2023-06-22T02:24:52;32.28;;;17.52;;
36547;SDS011;22551;52.206;4.856;2023-06-22T02:29:56;33.63;;;16.88;;
36547;SDS011;22551;52.206;4.856;2023-06-22T02:34:59;30.15;;;15.55;;
36547;SDS011;22551;52.206;4.856;2023-06-22T02:40:04;25.50;;;15.82;;
36547;SDS011;22551;52.206;4.856;2023-06-22T02:45:10;32.00;;;16.63;;
36547;SDS011;22551;52.206;4.856;2023-06-22T02:50:12;33.33;;;17.50;;
36547;SDS011;22551;52.206;4.856;2023-06-22T02:55:15;31.65;;;15.55;;
36547;SDS011;22551;52.206;4.856;2023-06-22T03:00:19;26.05;;;15.63;;
36547;SDS011;22551;52.206;4.856;2023-06-22T03:05:21;30.02;;;14.85;;
36547;SDS011;22551;52.206;4.856;2023-06-22T03:10:24;29.85;;;16.42;;
36547;SDS011;22551;52.206;4.856;2023-06-22T03:15:28;32.20;;;15.98;;
36547;SDS011;22551;52.206;4.856;2023-06-22T03:20:31;24.80;;;14.35;;
36547;SDS011;22551;52.206;4.856;2023-06-22T03:25:34;28.20;;;15.18;;
36547;SDS011;22551;52.206;4.856;2023-06-22T03:30:39;27.23;;;14.70;;
36547;SDS011;22551;52.206;4.856;2023-06-22T03:35:41;22.45;;;13.82;;
36547;SDS011;22551;52.206;4.856;2023-06-22T03:40:43;30.75;;;14.93;;
36547;SDS011;22551;52.206;4.856;2023-06-22T03:45:47;26.75;;;14.50;;
36547;SDS011;22551;52.206;4.856;2023-06-22T03:50:49;30.57;;;16.03;;
36547;SDS011;22551;52.206;4.856;2023-06-22T03:55:52;29.02;;;14.50;;
36547;SDS011;22551;52.206;4.856;2023-06-22T04:00:56;28.25;;;14.60;;
36547;SDS011;22551;52.206;4.856;2023-06-22T04:05:58;28.20;;;15.07;;
36547;SDS011;22551;52.206;4.856;2023-06-22T04:11:01;27.30;;;14.13;;
36547;SDS011;22551;52.206;4.856;2023-06-22T04:16:05;29.67;;;14.15;;
36547;SDS011;22551;52.206;4.856;2023-06-22T04:21:07;30.80;;;15.60;;
36547;SDS011;22551;52.206;4.856;2023-06-22T04:26:11;31.90;;;13.60;;
36547;SDS011;22551;52.206;4.856;2023-06-22T04:31:16;27.88;;;15.15;;
36547;SDS011;22551;52.206;4.856;2023-06-22T04:36:19;26.58;;;14.80;;
36547;SDS011;22551;52.206;4.856;2023-06-22T04:41:23;31.80;;;15.43;;
36547;SDS011;22551;52.206;4.856;2023-06-22T04:46:27;23.13;;;12.73;;
36547;SDS011;22551;52.206;4.856;2023-06-22T04:51:29;28.90;;;15.40;;
36547;SDS011;22551;52.206;4.856;2023-06-22T04:56:32;25.55;;;13.95;;
36547;SDS011;22551;52.206;4.856;2023-06-22T05:01:36;27.80;;;15.23;;
36547;SDS011;22551;52.206;4.856;2023-06-22T05:06:38;23.83;;;13.53;;
36547;SDS011;22551;52.206;4.856;2023-06-22T05:11:44;23.60;;;14.32;;
36547;SDS011;22551;52.206;4.856;2023-06-22T05:16:48;28.83;;;13.57;;
36547;SDS011;22551;52.206;4.856;2023-06-22T05:21:52;24.02;;;13.43;;
36547;SDS011;22551;52.206;4.856;2023-06-22T05:26:54;24.45;;;13.32;;
36547;SDS011;22551;52.206;4.856;2023-06-22T05:31:58;24.60;;;13.35;;
36547;SDS011;22551;52.206;4.856;2023-06-22T05:57:42;14.32;;;9.95;;
36547;SDS011;22551;52.206;4.856;2023-06-22T06:02:45;22.98;;;11.45;;
36547;SDS011;22551;52.206;4.856;2023-06-22T06:07:49;18.33;;;10.63;;
36547;SDS011;22551;52.206;4.856;2023-06-22T06:12:53;16.98;;;10.15;;
36547;SDS011;22551;52.206;4.856;2023-06-22T06:17:55;17.38;;;9.32;;
36547;SDS011;22551;52.206;4.856;2023-06-22T06:22:57;18.73;;;10.27;;
36547;SDS011;22551;52.206;4.856;2023-06-22T06:28:01;16.52;;;10.73;;
36547;SDS011;22551;52.206;4.856;2023-06-22T06:33:04;17.52;;;10.57;;
36547;SDS011;22551;52.206;4.856;2023-06-22T06:43:13;21.60;;;9.50;;
36547;SDS011;22551;52.206;4.856;2023-06-22T06:48:15;16.30;;;9.80;;
36547;SDS011;22551;52.206;4.856;2023-06-22T06:53:18;18.23;;;9.97;;
36547;SDS011;22551;52.206;4.856;2023-06-22T06:58:22;20.13;;;10.57;;
36547;SDS011;22551;52.206;4.856;2023-06-22T07:03:24;17.38;;;10.80;;
36547;SDS011;22551;52.206;4.856;2023-06-22T07:08:26;16.90;;;10.75;;
36547;SDS011;22551;52.206;4.856;2023-06-22T07:13:30;17.40;;;10.52;;
36547;SDS011;22551;52.206;4.856;2023-06-22T07:18:33;18.92;;;11.77;;
36547;SDS011;22551;52.206;4.856;2023-06-22T07:23:36;20.35;;;11.38;;
36547;SDS011;22551;52.206;4.856;2023-06-22T07:28:39;20.70;;;12.63;;
36547;SDS011;22551;52.206;4.856;2023-06-22T07:33:42;20.23;;;12.18;;
36547;SDS011;22551;52.206;4.856;2023-06-22T07:38:44;19.70;;;11.68;;
36547;SDS011;22551;52.206;4.856;2023-06-22T07:43:48;20.48;;;13.25;;
36547;SDS011;22551;52.206;4.856;2023-06-22T07:48:51;18.40;;;11.93;;
36547;SDS011;22551;52.206;4.856;2023-06-22T07:53:53;21.60;;;12.27;;
36547;SDS011;22551;52.206;4.856;2023-06-22T07:58:57;23.17;;;12.38;;
36547;SDS011;22551;52.206;4.856;2023-06-22T08:04:01;17.00;;;12.05;;
36547;SDS011;22551;52.206;4.856;2023-06-22T08:09:03;16.17;;;10.38;;
36547;SDS011;22551;52.206;4.856;2023-06-22T08:14:07;19.38;;;11.63;;
36547;SDS011;22551;52.206;4.856;2023-06-22T08:19:09;18.95;;;9.68;;
36547;SDS011;22551;52.206;4.856;2023-06-22T08:24:11;15.60;;;10.43;;
36547;SDS011;22551;52.206;4.856;2023-06-22T08:29:14;12.88;;;9.35;;
36547;SDS011;22551;52.206;4.856;2023-06-22T08:34:17;13.15;;;9.80;;
36547;SDS011;22551;52.206;4.856;2023-06-22T08:39:21;10.77;;;7.82;;
36547;SDS011;22551;52.206;4.856;2023-06-22T08:44:25;13.70;;;9.40;;
36547;SDS011;22551;52.206;4.856;2023-06-22T08:49:27;14.00;;;8.57;;
36547;SDS011;22551;52.206;4.856;2023-06-22T08:54:29;11.90;;;8.60;;
36547;SDS011;22551;52.206;4.856;2023-06-22T08:59:34;14.90;;;10.30;;
36547;SDS011;22551;52.206;4.856;2023-06-22T09:04:36;23.25;;;10.68;;
36547;SDS011;22551;52.206;4.856;2023-06-22T09:09:38;15.63;;;9.30;;
36547;SDS011;22551;52.206;4.856;2023-06-22T09:14:42;13.70;;;8.27;;
36547;SDS011;22551;52.206;4.856;2023-06-22T09:19:44;12.88;;;7.75;;
36547;SDS011;22551;52.206;4.856;2023-06-22T09:24:47;13.30;;;8.77;;
36547;SDS011;22551;52.206;4.856;2023-06-22T09:29:51;10.70;;;8.07;;
36547;SDS011;22551;52.206;4.856;2023-06-22T09:34:53;13.63;;;8.23;;
36547;SDS011;22551;52.206;4.856;2023-06-22T09:39:55;8.93;;;6.07;;
36547;SDS011;22551;52.206;4.856;2023-06-22T09:44:59;11.25;;;6.65;;
36547;SDS011;22551;52.206;4.856;2023-06-22T09:50:02;10.63;;;5.63;;
36547;SDS011;22551;52.206;4.856;2023-06-22T09:55:06;7.97;;;5.00;;
36547;SDS011;22551;52.206;4.856;2023-06-22T10:00:11;6.88;;;4.15;;
36547;SDS011;22551;52.206;4.856;2023-06-22T10:05:15;11.45;;;6.55;;
36547;SDS011;22551;52.206;4.856;2023-06-22T10:10:17;13.13;;;8.43;;
36547;SDS011;22551;52.206;4.856;2023-06-22T10:15:21;15.17;;;10.47;;
36547;SDS011;22551;52.206;4.856;2023-06-22T10:20:27;16.25;;;10.55;;
36547;SDS011;22551;52.206;4.856;2023-06-22T10:25:29;15.27;;;11.10;;
36547;SDS011;22551;52.206;4.856;2023-06-22T10:30:33;18.55;;;12.52;;
36547;SDS011;22551;52.206;4.856;2023-06-22T10:35:35;22.52;;;12.50;;
36547;SDS011;22551;52.206;4.856;2023-06-22T10:45:42;12.88;;;10.00;;
36547;SDS011;22551;52.206;4.856;2023-06-22T10:50:44;18.73;;;12.38;;
36547;SDS011;22551;52.206;4.856;2023-06-22T10:55:48;22.95;;;13.23;;
36547;SDS011;22551;52.206;4.856;2023-06-22T11:00:52;17.30;;;10.30;;
36547;SDS011;22551;52.206;4.856;2023-06-22T11:05:54;20.33;;;12.52;;
36547;SDS011;22551;52.206;4.856;2023-06-22T11:10:56;20.30;;;11.02;;
36547;SDS011;22551;52.206;4.856;2023-06-22T11:16:00;20.85;;;11.98;;
36547;SDS011;22551;52.206;4.856;2023-06-22T11:21:02;17.55;;;13.02;;
36547;SDS011;22551;52.206;4.856;2023-06-22T11:26:06;18.65;;;12.38;;
36547;SDS011;22551;52.206;4.856;2023-06-22T11:31:09;15.80;;;11.73;;
36547;SDS011;22551;52.206;4.856;2023-06-22T11:36:12;14.52;;;10.13;;
36547;SDS011;22551;52.206;4.856;2023-06-22T11:46:18;20.48;;;11.80;;
36547;SDS011;22551;52.206;4.856;2023-06-22T11:51:21;14.93;;;9.77;;
36547;SDS011;22551;52.206;4.856;2023-06-22T11:56:23;15.45;;;10.18;;
36547;SDS011;22551;52.206;4.856;2023-06-22T12:01:27;16.10;;;10.63;;
36547;SDS011;22551;52.206;4.856;2023-06-22T12:11:35;18.33;;;11.50;;
36547;SDS011;22551;52.206;4.856;2023-06-22T12:16:39;15.50;;;10.75;;
36547;SDS011;22551;52.206;4.856;2023-06-22T12:21:42;17.70;;;12.43;;
36547;SDS011;22551;52.206;4.856;2023-06-22T12:31:49;16.75;;;11.15;;
36547;SDS011;22551;52.206;4.856;2023-06-22T12:41:54;16.05;;;11.02;;
36547;SDS011;22551;52.206;4.856;2023-06-22T12:46:58;16.30;;;11.88;;
36547;SDS011;22551;52.206;4.856;2023-06-22T12:57:02;15.52;;;9.95;;
36547;SDS011;22551;52.206;4.856;2023-06-22T13:02:07;16.13;;;10.97;;
36547;SDS011;22551;52.206;4.856;2023-06-22T13:07:09;16.73;;;10.48;;
36547;SDS011;22551;52.206;4.856;2023-06-22T13:12:11;14.48;;;9.50;;
36547;SDS011;22551;52.206;4.856;2023-06-22T13:17:15;14.90;;;10.57;;
36547;SDS011;22551;52.206;4.856;2023-06-22T13:27:28;15.35;;;10.20;;
36547;SDS011;22551;52.206;4.856;2023-06-22T13:32:32;9.88;;;7.75;;
36547;SDS011;22551;52.206;4.856;2023-06-22T13:37:35;10.80;;;7.82;;
36547;SDS011;22551;52.206;4.856;2023-06-22T13:42:37;11.18;;;7.78;;
36547;SDS011;22551;52.206;4.856;2023-06-22T13:47:41;12.02;;;9.07;;
36547;SDS011;22551;52.206;4.856;2023-06-22T13:52:45;11.93;;;8.00;;
36547;SDS011;22551;52.206;4.856;2023-06-22T13:57:47;10.95;;;8.13;;
36547;SDS011;22551;52.206;4.856;2023-06-22T14:02:51;10.23;;;7.90;;
36547;SDS011;22551;52.206;4.856;2023-06-22T15:00:31;9.25;;;5.88;;
36547;SDS011;22551;52.206;4.856;2023-06-22T15:05:35;8.05;;;5.90;;
36547;SDS011;22551;52.206;4.856;2023-06-22T15:10:37;10.32;;;6.57;;
36547;SDS011;22551;52.206;4.856;2023-06-22T15:15:41;9.80;;;6.20;;
36547;SDS011;22551;52.206;4.856;2023-06-22T15:20:45;7.68;;;5.95;;
36547;SDS011;22551;52.206;4.856;2023-06-22T15:25:49;12.45;;;6.40;;
36547;SDS011;22551;52.206;4.856;2023-06-22T15:30:53;9.65;;;5.97;;
36547;SDS011;22551;52.206;4.856;2023-06-22T15:35:56;9.75;;;6.40;;
36547;SDS011;22551;52.206;4.856;2023-06-22T15:40:58;9.15;;;6.63;;
36547;SDS011;22551;52.206;4.856;2023-06-22T15:46:02;10.90;;;7.03;;
36547;SDS011;22551;52.206;4.856;2023-06-22T15:56:06;8.85;;;6.18;;
36547;SDS011;22551;52.206;4.856;2023-06-22T16:01:11;11.53;;;7.53;;
36547;SDS011;22551;52.206;4.856;2023-06-22T16:11:15;9.18;;;7.15;;
36547;SDS011;22551;52.206;4.856;2023-06-22T16:16:18;9.35;;;7.30;;
36547;SDS011;22551;52.206;4.856;2023-06-22T16:21:21;16.77;;;8.60;;
36547;SDS011;22551;52.206;4.856;2023-06-22T16:26:23;13.27;;;8.45;;
36547;SDS011;22551;52.206;4.856;2023-06-22T16:31:27;12.35;;;8.75;;
36547;SDS011;22551;52.206;4.856;2023-06-22T16:41:40;13.80;;;9.20;;
36547;SDS011;22551;52.206;4.856;2023-06-22T16:46:46;14.80;;;9.88;;
36547;SDS011;22551;52.206;4.856;2023-06-22T16:51:48;14.18;;;9.95;;
36547;SDS011;22551;52.206;4.856;2023-06-22T16:56:51;12.98;;;9.82;;
36547;SDS011;22551;52.206;4.856;2023-06-22T17:01:55;11.15;;;8.88;;
36547;SDS011;22551;52.206;4.856;2023-06-22T17:06:59;14.52;;;9.88;;
36547;SDS011;22551;52.206;4.856;2023-06-22T17:12:13;13.30;;;10.07;;
36547;SDS011;22551;52.206;4.856;2023-06-22T17:17:17;15.13;;;9.40;;
36547;SDS011;22551;52.206;4.856;2023-06-22T17:22:22;15.85;;;8.82;;
36547;SDS011;22551;52.206;4.856;2023-06-22T17:27:27;11.60;;;8.50;;
36547;SDS011;22551;52.206;4.856;2023-06-22T17:32:31;14.82;;;8.82;;
36547;SDS011;22551;52.206;4.856;2023-06-22T17:37:34;9.18;;;6.43;;
36547;SDS011;22551;52.206;4.856;2023-06-22T17:42:49;6.22;;;3.42;;
36547;SDS011;22551;52.206;4.856;2023-06-22T17:47:53;5.13;;;3.28;;
36547;SDS011;22551;52.206;4.856;2023-06-22T17:57:58;4.82;;;2.60;;
36547;SDS011;22551;52.206;4.856;2023-06-22T18:03:02;3.22;;;2.47;;
36547;SDS011;22551;52.206;4.856;2023-06-22T18:08:05;6.95;;;2.33;;
36547;SDS011;22551;52.206;4.856;2023-06-22T18:13:08;4.20;;;2.03;;
36547;SDS011;22551;52.206;4.856;2023-06-22T18:18:16;5.63;;;1.90;;
36547;SDS011;22551;52.206;4.856;2023-06-22T18:23:18;3.13;;;1.80;;
36547;SDS011;22551;52.206;4.856;2023-06-22T18:28:21;2.63;;;1.65;;
36547;SDS011;22551;52.206;4.856;2023-06-22T18:33:26;4.05;;;1.65;;
36547;SDS011;22551;52.206;4.856;2023-06-22T18:38:29;5.15;;;1.75;;
36547;SDS011;22551;52.206;4.856;2023-06-22T18:43:35;2.17;;;1.38;;
36547;SDS011;22551;52.206;4.856;2023-06-22T18:48:41;2.97;;;1.15;;
36547;SDS011;22551;52.206;4.856;2023-06-22T18:58:55;1.45;;;0.73;;
36547;SDS011;22551;52.206;4.856;2023-06-22T19:19:31;6.47;;;1.38;;
36547;SDS011;22551;52.206;4.856;2023-06-22T19:29:50;3.35;;;1.65;;
36547;SDS011;22551;52.206;4.856;2023-06-22T19:34:55;2.42;;;1.67;;
36547;SDS011;22551;52.206;4.856;2023-06-22T19:39:58;3.35;;;1.67;;
36547;SDS011;22551;52.206;4.856;2023-06-22T19:45:00;5.20;;;2.13;;
36547;SDS011;22551;52.206;4.856;2023-06-22T19:50:05;3.70;;;2.28;;
36547;SDS011;22551;52.206;4.856;2023-06-22T19:55:09;1.77;;;1.58;;
36547;SDS011;22551;52.206;4.856;2023-06-22T20:00:19;3.08;;;1.77;;
36547;SDS011;22551;52.206;4.856;2023-06-22T20:05:23;1.73;;;1.52;;
36547;SDS011;22551;52.206;4.856;2023-06-22T20:10:26;2.22;;;1.77;;
36547;SDS011;22551;52.206;4.856;2023-06-22T20:15:28;2.40;;;1.45;;
36547;SDS011;22551;52.206;4.856;2023-06-22T20:20:32;4.93;;;1.67;;
36547;SDS011;22551;52.206;4.856;2023-06-22T20:25:37;2.88;;;2.00;;
36547;SDS011;22551;52.206;4.856;2023-06-22T20:30:42;3.85;;;2.08;;
36547;SDS011;22551;52.206;4.856;2023-06-22T20:36:05;3.78;;;2.20;;
36547;SDS011;22551;52.206;4.856;2023-06-22T20:41:08;3.40;;;2.03;;
36547;SDS011;22551;52.206;4.856;2023-06-22T20:46:10;5.07;;;2.25;;
36547;SDS011;22551;52.206;4.856;2023-06-22T20:51:14;3.67;;;2.40;;
36547;SDS011;22551;52.206;4.856;2023-06-22T20:56:17;2.78;;;2.22;;
36547;SDS011;22551;52.206;4.856;2023-06-22T21:01:19;4.45;;;2.47;;
36547;SDS011;22551;52.206;4.856;2023-06-22T21:06:24;4.05;;;2.38;;
36547;SDS011;22551;52.206;4.856;2023-06-22T21:11:27;3.58;;;2.10;;
36547;SDS011;22551;52.206;4.856;2023-06-22T21:16:30;9.32;;;2.60;;
36547;SDS011;22551;52.206;4.856;2023-06-22T21:21:35;6.40;;;2.80;;
36547;SDS011;22551;52.206;4.856;2023-06-22T21:26:37;7.20;;;2.80;;
36547;SDS011;22551;52.206;4.856;2023-06-22T21:31:41;5.13;;;2.60;;
36547;SDS011;22551;52.206;4.856;2023-06-22T21:36:44;6.38;;;3.53;;
36547;SDS011;22551;52.206;4.856;2023-06-22T21:41:47;7.78;;;3.90;;
36547;SDS011;22551;52.206;4.856;2023-06-22T21:46:49;6.72;;;3.63;;
36547;SDS011;22551;52.206;4.856;2023-06-22T21:51:52;7.03;;;3.58;;
36547;SDS011;22551;52.206;4.856;2023-06-22T21:56:55;8.63;;;4.73;;
36547;SDS011;22551;52.206;4.856;2023-06-22T22:01:57;9.10;;;4.60;;
36547;SDS011;22551;52.206;4.856;2023-06-22T22:07:01;6.18;;;4.60;;
36547;SDS011;22551;52.206;4.856;2023-06-22T22:12:05;9.35;;;4.88;;
36547;SDS011;22551;52.206;4.856;2023-06-22T22:17:07;9.80;;;5.03;;
36547;SDS011;22551;52.206;4.856;2023-06-22T22:22:12;8.38;;;5.10;;
36547;SDS011;22551;52.206;4.856;2023-06-22T22:27:15;8.75;;;5.40;;
36547;SDS011;22551;52.206;4.856;2023-06-22T22:32:19;9.00;;;5.32;;
36547;SDS011;22551;52.206;4.856;2023-06-22T22:37:23;13.07;;;5.35;;
36547;SDS011;22551;52.206;4.856;2023-06-22T22:42:26;9.20;;;5.83;;
36547;SDS011;22551;52.206;4.856;2023-06-22T22:47:28;9.30;;;6.15;;
36547;SDS011;22551;52.206;4.856;2023-06-22T22:52:32;8.02;;;5.15;;
36547;SDS011;22551;52.206;4.856;2023-06-22T22:57:35;8.70;;;5.82;;
36547;SDS011;22551;52.206;4.856;2023-06-22T23:02:37;9.20;;;6.13;;
36547;SDS011;22551;52.206;4.856;2023-06-22T23:07:41;9.30;;;4.93;;
36547;SDS011;22551;52.206;4.856;2023-06-22T23:12:43;7.70;;;5.37;;
36547;SDS011;22551;52.206;4.856;2023-06-22T23:17:45;7.50;;;4.38;;
36547;SDS011;22551;52.206;4.856;2023-06-22T23:22:53;6.35;;;4.70;;
36547;SDS011;22551;52.206;4.856;2023-06-22T23:27:58;6.05;;;4.63;;
36547;SDS011;22551;52.206;4.856;2023-06-22T23:33:00;9.65;;;4.88;;
36547;SDS011;22551;52.206;4.856;2023-06-22T23:38:04;5.85;;;4.60;;
36547;SDS011;22551;52.206;4.856;2023-06-22T23:43:09;8.52;;;4.68;;
36547;SDS011;22551;52.206;4.856;2023-06-22T23:48:11;9.98;;;6.50;;
36547;SDS011;22551;52.206;4.856;2023-06-22T23:53:16;13.15;;;7.05;;
36547;SDS011;22551;52.206;4.856;2023-06-22T23:58:18;11.67;;;6.70;;
